sensor_id;sensor_type;location;lat;lon;timestamp;temperature;humidity
55004;DHT22;40900;52.710;6.438;2023-06-14T00:01:46;19.20;83.10
55004;DHT22;40900;52.710;6.438;2023-06-14T00:04:13;19.20;83.20
55004;DHT22;40900;52.710;6.438;2023-06-14T00:06:39;19.20;83.20
55004;DHT22;40900;52.710;6.438;2023-06-14T00:09:06;19.20;83.20
55004;DHT22;40900;52.710;6.438;2023-06-14T00:11:34;19.10;83.50
55004;DHT22;40900;52.710;6.438;2023-06-14T00:13:59;19.10;83.60
55004;DHT22;40900;52.710;6.438;2023-06-14T00:16:25;18.90;84.00
55004;DHT22;40900;52.710;6.438;2023-06-14T00:18:51;18.80;84.30
55004;DHT22;40900;52.710;6.438;2023-06-14T00:21:17;18.70;84.30
55004;DHT22;40900;52.710;6.438;2023-06-14T00:23:43;18.70;84.40
55004;DHT22;40900;52.710;6.438;2023-06-14T00:26:09;18.70;84.50
55004;DHT22;40900;52.710;6.438;2023-06-14T00:28:35;18.60;84.90
55004;DHT22;40900;52.710;6.438;2023-06-14T00:31:00;18.50;85.10
55004;DHT22;40900;52.710;6.438;2023-06-14T00:33:26;18.40;85.50
55004;DHT22;40900;52.710;6.438;2023-06-14T00:35:52;18.50;85.50
55004;DHT22;40900;52.710;6.438;2023-06-14T00:38:20;18.40;85.60
55004;DHT22;40900;52.710;6.438;2023-06-14T00:40:46;18.30;86.70
55004;DHT22;40900;52.710;6.438;2023-06-14T00:43:12;18.20;86.30
55004;DHT22;40900;52.710;6.438;2023-06-14T00:45:38;18.20;86.60
55004;DHT22;40900;52.710;6.438;2023-06-14T00:48:04;18.20;86.70
55004;DHT22;40900;52.710;6.438;2023-06-14T00:50:32;18.20;87.30
55004;DHT22;40900;52.710;6.438;2023-06-14T00:52:59;18.20;86.60
55004;DHT22;40900;52.710;6.438;2023-06-14T00:55:27;18.20;86.70
55004;DHT22;40900;52.710;6.438;2023-06-14T00:57:54;18.20;86.90
55004;DHT22;40900;52.710;6.438;2023-06-14T01:00:20;18.10;87.10
55004;DHT22;40900;52.710;6.438;2023-06-14T01:02:45;18.00;87.50
55004;DHT22;40900;52.710;6.438;2023-06-14T01:05:12;17.90;87.60
55004;DHT22;40900;52.710;6.438;2023-06-14T01:11:05;17.90;88.20
55004;DHT22;40900;52.710;6.438;2023-06-14T01:13:36;17.90;88.30
55004;DHT22;40900;52.710;6.438;2023-06-14T01:16:03;17.80;88.50
55004;DHT22;40900;52.710;6.438;2023-06-14T01:18:30;17.70;88.70
55004;DHT22;40900;52.710;6.438;2023-06-14T01:20:56;17.70;88.80
55004;DHT22;40900;52.710;6.438;2023-06-14T01:23:23;17.70;89.10
55004;DHT22;40900;52.710;6.438;2023-06-14T01:25:49;17.60;89.30
55004;DHT22;40900;52.710;6.438;2023-06-14T01:28:20;17.60;89.60
55004;DHT22;40900;52.710;6.438;2023-06-14T01:30:50;17.60;89.90
55004;DHT22;40900;52.710;6.438;2023-06-14T01:33:21;17.60;90.00
55004;DHT22;40900;52.710;6.438;2023-06-14T01:35:50;17.50;90.30
55004;DHT22;40900;52.710;6.438;2023-06-14T01:38:20;17.50;90.30
55004;DHT22;40900;52.710;6.438;2023-06-14T01:40:48;17.40;90.50
55004;DHT22;40900;52.710;6.438;2023-06-14T01:43:15;17.30;90.60
55004;DHT22;40900;52.710;6.438;2023-06-14T01:45:42;17.40;90.70
55004;DHT22;40900;52.710;6.438;2023-06-14T01:48:09;17.40;90.70
55004;DHT22;40900;52.710;6.438;2023-06-14T01:50:35;17.40;90.80
55004;DHT22;40900;52.710;6.438;2023-06-14T01:53:01;17.40;90.80
55004;DHT22;40900;52.710;6.438;2023-06-14T01:55:27;17.40;90.90
55004;DHT22;40900;52.710;6.438;2023-06-14T01:57:53;17.40;90.90
55004;DHT22;40900;52.710;6.438;2023-06-14T02:00:20;17.30;91.30
55004;DHT22;40900;52.710;6.438;2023-06-14T02:02:47;17.40;91.10
55004;DHT22;40900;52.710;6.438;2023-06-14T02:05:12;17.30;91.20
55004;DHT22;40900;52.710;6.438;2023-06-14T02:07:38;17.20;91.70
55004;DHT22;40900;52.710;6.438;2023-06-14T02:10:06;17.20;91.40
55004;DHT22;40900;52.710;6.438;2023-06-14T02:12:31;17.20;91.60
55004;DHT22;40900;52.710;6.438;2023-06-14T02:14:57;17.20;91.50
55004;DHT22;40900;52.710;6.438;2023-06-14T02:17:23;17.20;91.70
55004;DHT22;40900;52.710;6.438;2023-06-14T02:19:50;17.20;91.80
55004;DHT22;40900;52.710;6.438;2023-06-14T02:22:16;17.10;92.10
55004;DHT22;40900;52.710;6.438;2023-06-14T02:24:42;17.00;92.30
55004;DHT22;40900;52.710;6.438;2023-06-14T02:27:09;17.00;92.40
55004;DHT22;40900;52.710;6.438;2023-06-14T02:29:36;16.90;92.70
55004;DHT22;40900;52.710;6.438;2023-06-14T02:32:02;16.80;92.90
55004;DHT22;40900;52.710;6.438;2023-06-14T02:34:28;16.90;92.90
55004;DHT22;40900;52.710;6.438;2023-06-14T02:36:54;16.90;92.80
55004;DHT22;40900;52.710;6.438;2023-06-14T02:39:21;16.70;93.50
55004;DHT22;40900;52.710;6.438;2023-06-14T02:41:51;16.70;93.60
55004;DHT22;40900;52.710;6.438;2023-06-14T02:44:18;16.70;93.60
55004;DHT22;40900;52.710;6.438;2023-06-14T02:46:44;16.70;93.70
55004;DHT22;40900;52.710;6.438;2023-06-14T02:49:14;16.70;93.80
55004;DHT22;40900;52.710;6.438;2023-06-14T02:51:39;16.70;94.10
55004;DHT22;40900;52.710;6.438;2023-06-14T02:54:05;16.60;94.20
55004;DHT22;40900;52.710;6.438;2023-06-14T02:56:31;16.70;94.30
55004;DHT22;40900;52.710;6.438;2023-06-14T02:58:57;16.70;94.30
55004;DHT22;40900;52.710;6.438;2023-06-14T03:01:25;16.60;94.50
55004;DHT22;40900;52.710;6.438;2023-06-14T03:04:00;16.60;94.60
55004;DHT22;40900;52.710;6.438;2023-06-14T03:06:26;16.60;94.70
55004;DHT22;40900;52.710;6.438;2023-06-14T03:08:55;16.50;95.00
55004;DHT22;40900;52.710;6.438;2023-06-14T03:11:24;16.40;95.40
55004;DHT22;40900;52.710;6.438;2023-06-14T03:13:51;16.40;95.60
55004;DHT22;40900;52.710;6.438;2023-06-14T03:16:19;16.40;95.80
55004;DHT22;40900;52.710;6.438;2023-06-14T03:18:52;16.40;95.90
55004;DHT22;40900;52.710;6.438;2023-06-14T03:21:19;16.30;96.10
55004;DHT22;40900;52.710;6.438;2023-06-14T03:23:46;16.30;96.20
55004;DHT22;40900;52.710;6.438;2023-06-14T03:26:12;16.30;96.40
55004;DHT22;40900;52.710;6.438;2023-06-14T03:28:47;16.30;96.50
55004;DHT22;40900;52.710;6.438;2023-06-14T03:31:13;16.30;96.70
55004;DHT22;40900;52.710;6.438;2023-06-14T03:33:40;16.20;97.10
55004;DHT22;40900;52.710;6.438;2023-06-14T03:36:06;16.10;97.40
55004;DHT22;40900;52.710;6.438;2023-06-14T03:38:34;16.20;97.40
55004;DHT22;40900;52.710;6.438;2023-06-14T03:41:00;16.10;97.60
55004;DHT22;40900;52.710;6.438;2023-06-14T03:43:27;16.10;97.80
55004;DHT22;40900;52.710;6.438;2023-06-14T03:45:53;16.10;98.00
55004;DHT22;40900;52.710;6.438;2023-06-14T03:48:18;16.10;98.10
55004;DHT22;40900;52.710;6.438;2023-06-14T03:50:44;16.10;98.30
55004;DHT22;40900;52.710;6.438;2023-06-14T03:53:10;16.10;98.30
55004;DHT22;40900;52.710;6.438;2023-06-14T03:55:36;16.10;98.50
55004;DHT22;40900;52.710;6.438;2023-06-14T03:58:03;16.10;98.60
55004;DHT22;40900;52.710;6.438;2023-06-14T04:00:29;16.10;98.80
55004;DHT22;40900;52.710;6.438;2023-06-14T04:02:55;16.20;98.80
55004;DHT22;40900;52.710;6.438;2023-06-14T04:05:21;16.30;98.60
55004;DHT22;40900;52.710;6.438;2023-06-14T04:07:47;16.30;98.50
55004;DHT22;40900;52.710;6.438;2023-06-14T04:10:15;16.40;98.60
55004;DHT22;40900;52.710;6.438;2023-06-14T04:12:41;16.30;98.90
55004;DHT22;40900;52.710;6.438;2023-06-14T04:15:08;16.30;98.90
55004;DHT22;40900;52.710;6.438;2023-06-14T04:17:34;16.30;99.10
55004;DHT22;40900;52.710;6.438;2023-06-14T04:20:02;16.30;99.20
55004;DHT22;40900;52.710;6.438;2023-06-14T04:22:29;16.30;99.20
55004;DHT22;40900;52.710;6.438;2023-06-14T04:24:56;16.40;99.40
55004;DHT22;40900;52.710;6.438;2023-06-14T04:27:26;16.40;99.40
55004;DHT22;40900;52.710;6.438;2023-06-14T04:29:53;16.50;99.60
55004;DHT22;40900;52.710;6.438;2023-06-14T04:32:28;16.30;99.80
55004;DHT22;40900;52.710;6.438;2023-06-14T04:35:07;16.30;99.90
55004;DHT22;40900;52.710;6.438;2023-06-14T04:37:34;16.20;99.90
55004;DHT22;40900;52.710;6.438;2023-06-14T04:40:00;16.30;99.90
55004;DHT22;40900;52.710;6.438;2023-06-14T04:42:26;16.30;99.90
55004;DHT22;40900;52.710;6.438;2023-06-14T04:44:55;16.30;99.90
55004;DHT22;40900;52.710;6.438;2023-06-14T04:47:21;16.30;99.90
55004;DHT22;40900;52.710;6.438;2023-06-14T04:49:47;16.30;99.90
55004;DHT22;40900;52.710;6.438;2023-06-14T04:52:13;16.40;99.90
55004;DHT22;40900;52.710;6.438;2023-06-14T04:54:42;16.40;99.90
55004;DHT22;40900;52.710;6.438;2023-06-14T04:57:09;16.50;99.90
55004;DHT22;40900;52.710;6.438;2023-06-14T04:59:40;16.50;99.90
55004;DHT22;40900;52.710;6.438;2023-06-14T05:02:05;16.50;99.90
55004;DHT22;40900;52.710;6.438;2023-06-14T05:04:32;16.60;99.90
55004;DHT22;40900;52.710;6.438;2023-06-14T05:06:58;16.60;99.90
55004;DHT22;40900;52.710;6.438;2023-06-14T05:09:24;16.60;99.90
55004;DHT22;40900;52.710;6.438;2023-06-14T05:11:50;16.60;99.90
55004;DHT22;40900;52.710;6.438;2023-06-14T05:14:15;16.60;99.90
55004;DHT22;40900;52.710;6.438;2023-06-14T05:16:41;16.80;99.90
55004;DHT22;40900;52.710;6.438;2023-06-14T05:19:08;16.80;99.90
55004;DHT22;40900;52.710;6.438;2023-06-14T05:21:36;16.80;99.90
55004;DHT22;40900;52.710;6.438;2023-06-14T05:24:03;16.90;99.90
55004;DHT22;40900;52.710;6.438;2023-06-14T05:26:29;16.90;99.90
55004;DHT22;40900;52.710;6.438;2023-06-14T05:28:56;16.90;99.90
55004;DHT22;40900;52.710;6.438;2023-06-14T05:31:22;17.00;99.90
55004;DHT22;40900;52.710;6.438;2023-06-14T05:33:49;17.00;99.90
55004;DHT22;40900;52.710;6.438;2023-06-14T05:36:15;17.10;99.90
55004;DHT22;40900;52.710;6.438;2023-06-14T05:38:41;17.20;99.90
55004;DHT22;40900;52.710;6.438;2023-06-14T05:41:07;17.20;99.80
55004;DHT22;40900;52.710;6.438;2023-06-14T05:43:32;17.30;99.70
55004;DHT22;40900;52.710;6.438;2023-06-14T05:45:58;17.30;99.50
55004;DHT22;40900;52.710;6.438;2023-06-14T05:48:24;17.40;99.30
55004;DHT22;40900;52.710;6.438;2023-06-14T05:50:49;17.50;99.10
55004;DHT22;40900;52.710;6.438;2023-06-14T05:53:15;17.50;99.00
55004;DHT22;40900;52.710;6.438;2023-06-14T05:55:41;17.50;99.00
55004;DHT22;40900;52.710;6.438;2023-06-14T05:58:07;17.60;98.60
55004;DHT22;40900;52.710;6.438;2023-06-14T06:00:32;17.70;98.70
55004;DHT22;40900;52.710;6.438;2023-06-14T06:02:58;17.80;98.70
55004;DHT22;40900;52.710;6.438;2023-06-14T06:05:24;17.80;98.60
55004;DHT22;40900;52.710;6.438;2023-06-14T06:07:50;17.90;98.40
55004;DHT22;40900;52.710;6.438;2023-06-14T06:10:16;18.00;98.40
55004;DHT22;40900;52.710;6.438;2023-06-14T06:12:42;18.00;98.30
55004;DHT22;40900;52.710;6.438;2023-06-14T06:15:09;18.10;98.00
55004;DHT22;40900;52.710;6.438;2023-06-14T06:17:37;18.20;97.90
55004;DHT22;40900;52.710;6.438;2023-06-14T06:20:04;18.20;97.40
55004;DHT22;40900;52.710;6.438;2023-06-14T06:22:31;18.30;97.20
55004;DHT22;40900;52.710;6.438;2023-06-14T06:24:57;18.40;97.20
55004;DHT22;40900;52.710;6.438;2023-06-14T06:27:23;18.40;96.90
55004;DHT22;40900;52.710;6.438;2023-06-14T06:29:48;18.50;96.70
55004;DHT22;40900;52.710;6.438;2023-06-14T06:32:15;18.50;96.70
55004;DHT22;40900;52.710;6.438;2023-06-14T06:34:41;18.60;96.80
55004;DHT22;40900;52.710;6.438;2023-06-14T06:37:06;18.70;96.40
55004;DHT22;40900;52.710;6.438;2023-06-14T06:39:33;18.70;96.00
55004;DHT22;40900;52.710;6.438;2023-06-14T06:41:59;18.80;96.10
55004;DHT22;40900;52.710;6.438;2023-06-14T06:44:24;18.90;96.00
55004;DHT22;40900;52.710;6.438;2023-06-14T06:46:50;19.00;95.60
55004;DHT22;40900;52.710;6.438;2023-06-14T06:49:16;19.10;95.70
55004;DHT22;40900;52.710;6.438;2023-06-14T06:51:42;19.20;95.00
55004;DHT22;40900;52.710;6.438;2023-06-14T06:54:11;19.20;94.10
55004;DHT22;40900;52.710;6.438;2023-06-14T06:56:36;19.30;94.50
55004;DHT22;40900;52.710;6.438;2023-06-14T06:59:02;19.40;94.20
55004;DHT22;40900;52.710;6.438;2023-06-14T07:01:28;19.50;93.80
55004;DHT22;40900;52.710;6.438;2023-06-14T07:03:55;19.60;93.60
55004;DHT22;40900;52.710;6.438;2023-06-14T07:06:21;19.70;93.30
55004;DHT22;40900;52.710;6.438;2023-06-14T07:08:47;19.70;92.90
55004;DHT22;40900;52.710;6.438;2023-06-14T07:11:16;19.80;93.20
55004;DHT22;40900;52.710;6.438;2023-06-14T07:13:41;19.90;92.60
55004;DHT22;40900;52.710;6.438;2023-06-14T07:16:07;19.90;92.80
55004;DHT22;40900;52.710;6.438;2023-06-14T07:18:33;20.00;92.60
55004;DHT22;40900;52.710;6.438;2023-06-14T07:20:59;20.10;92.80
55004;DHT22;40900;52.710;6.438;2023-06-14T07:23:24;20.20;92.50
55004;DHT22;40900;52.710;6.438;2023-06-14T07:25:50;20.30;92.40
55004;DHT22;40900;52.710;6.438;2023-06-14T07:28:17;20.40;92.00
55004;DHT22;40900;52.710;6.438;2023-06-14T07:30:43;20.50;91.70
55004;DHT22;40900;52.710;6.438;2023-06-14T07:33:09;20.60;91.70
55004;DHT22;40900;52.710;6.438;2023-06-14T07:35:36;20.80;91.50
55004;DHT22;40900;52.710;6.438;2023-06-14T07:38:02;21.00;91.70
55004;DHT22;40900;52.710;6.438;2023-06-14T07:40:28;21.20;91.40
55004;DHT22;40900;52.710;6.438;2023-06-14T07:42:54;21.60;90.70
55004;DHT22;40900;52.710;6.438;2023-06-14T07:45:20;22.10;89.70
55004;DHT22;40900;52.710;6.438;2023-06-14T07:47:46;22.60;89.80
55004;DHT22;40900;52.710;6.438;2023-06-14T07:50:12;23.20;88.30
55004;DHT22;40900;52.710;6.438;2023-06-14T07:52:39;23.80;86.90
55004;DHT22;40900;52.710;6.438;2023-06-14T07:55:05;24.30;85.10
55004;DHT22;40900;52.710;6.438;2023-06-14T07:57:31;24.60;83.30
55004;DHT22;40900;52.710;6.438;2023-06-14T07:59:57;24.60;82.60
55004;DHT22;40900;52.710;6.438;2023-06-14T08:02:22;24.80;82.20
55004;DHT22;40900;52.710;6.438;2023-06-14T08:04:48;25.10;81.30
55004;DHT22;40900;52.710;6.438;2023-06-14T08:07:14;25.00;81.70
55004;DHT22;40900;52.710;6.438;2023-06-14T08:09:40;25.50;80.90
55004;DHT22;40900;52.710;6.438;2023-06-14T08:12:07;25.60;80.10
55004;DHT22;40900;52.710;6.438;2023-06-14T08:14:35;25.80;80.10
55004;DHT22;40900;52.710;6.438;2023-06-14T08:17:01;26.10;79.90
55004;DHT22;40900;52.710;6.438;2023-06-14T08:19:26;26.30;80.00
55004;DHT22;40900;52.710;6.438;2023-06-14T08:21:52;26.50;79.60
55004;DHT22;40900;52.710;6.438;2023-06-14T08:24:21;26.90;78.70
55004;DHT22;40900;52.710;6.438;2023-06-14T08:26:50;27.30;77.90
55004;DHT22;40900;52.710;6.438;2023-06-14T08:29:16;27.50;77.70
55004;DHT22;40900;52.710;6.438;2023-06-14T08:31:41;27.70;77.40
55004;DHT22;40900;52.710;6.438;2023-06-14T08:34:07;27.70;76.30
55004;DHT22;40900;52.710;6.438;2023-06-14T08:36:33;27.70;75.30
55004;DHT22;40900;52.710;6.438;2023-06-14T08:39:00;27.90;74.70
55004;DHT22;40900;52.710;6.438;2023-06-14T08:41:25;27.80;73.70
55004;DHT22;40900;52.710;6.438;2023-06-14T08:43:55;27.70;73.40
55004;DHT22;40900;52.710;6.438;2023-06-14T08:46:21;27.90;73.70
55004;DHT22;40900;52.710;6.438;2023-06-14T08:48:51;28.20;73.60
55004;DHT22;40900;52.710;6.438;2023-06-14T08:51:22;28.30;73.50
55004;DHT22;40900;52.710;6.438;2023-06-14T08:53:53;28.40;73.20
55004;DHT22;40900;52.710;6.438;2023-06-14T08:56:25;28.50;73.00
55004;DHT22;40900;52.710;6.438;2023-06-14T08:58:53;28.90;73.00
55004;DHT22;40900;52.710;6.438;2023-06-14T09:01:20;28.60;72.80
55004;DHT22;40900;52.710;6.438;2023-06-14T09:03:48;28.90;72.70
55004;DHT22;40900;52.710;6.438;2023-06-14T09:06:14;28.90;71.50
55004;DHT22;40900;52.710;6.438;2023-06-14T09:08:45;28.80;71.30
55004;DHT22;40900;52.710;6.438;2023-06-14T09:11:12;28.60;71.70
55004;DHT22;40900;52.710;6.438;2023-06-14T09:13:42;29.00;71.90
55004;DHT22;40900;52.710;6.438;2023-06-14T09:16:08;29.10;71.20
55004;DHT22;40900;52.710;6.438;2023-06-14T09:18:39;29.20;71.30
55004;DHT22;40900;52.710;6.438;2023-06-14T09:21:07;29.20;71.40
55004;DHT22;40900;52.710;6.438;2023-06-14T09:23:41;29.60;71.70
55004;DHT22;40900;52.710;6.438;2023-06-14T09:26:17;29.70;70.80
55004;DHT22;40900;52.710;6.438;2023-06-14T09:28:45;29.70;69.80
55004;DHT22;40900;52.710;6.438;2023-06-14T09:31:16;29.70;70.20
55004;DHT22;40900;52.710;6.438;2023-06-14T09:33:46;30.00;69.90
55004;DHT22;40900;52.710;6.438;2023-06-14T09:38:55;29.90;69.20
55004;DHT22;40900;52.710;6.438;2023-06-14T09:41:31;29.70;68.60
55004;DHT22;40900;52.710;6.438;2023-06-14T09:43:58;29.60;68.70
55004;DHT22;40900;52.710;6.438;2023-06-14T09:46:27;29.70;69.00
55004;DHT22;40900;52.710;6.438;2023-06-14T09:48:53;29.70;69.20
55004;DHT22;40900;52.710;6.438;2023-06-14T09:51:19;29.60;69.20
55004;DHT22;40900;52.710;6.438;2023-06-14T09:53:47;29.80;68.90
55004;DHT22;40900;52.710;6.438;2023-06-14T09:56:20;29.80;68.20
55004;DHT22;40900;52.710;6.438;2023-06-14T09:58:48;30.00;69.30
55004;DHT22;40900;52.710;6.438;2023-06-14T10:01:16;30.20;67.80
55004;DHT22;40900;52.710;6.438;2023-06-14T10:03:44;29.50;67.60
55004;DHT22;40900;52.710;6.438;2023-06-14T10:06:11;29.40;67.90
55004;DHT22;40900;52.710;6.438;2023-06-14T10:08:37;29.30;68.10
55004;DHT22;40900;52.710;6.438;2023-06-14T10:11:03;29.50;68.20
55004;DHT22;40900;52.710;6.438;2023-06-14T10:13:32;29.60;67.90
55004;DHT22;40900;52.710;6.438;2023-06-14T10:16:15;29.80;67.60
55004;DHT22;40900;52.710;6.438;2023-06-14T10:18:51;29.70;67.90
55004;DHT22;40900;52.710;6.438;2023-06-14T10:21:41;29.80;68.10
55004;DHT22;40900;52.710;6.438;2023-06-14T10:24:13;30.00;67.20
55004;DHT22;40900;52.710;6.438;2023-06-14T10:26:51;30.00;66.70
55004;DHT22;40900;52.710;6.438;2023-06-14T10:29:17;29.90;66.60
55004;DHT22;40900;52.710;6.438;2023-06-14T10:31:44;30.10;66.40
55004;DHT22;40900;52.710;6.438;2023-06-14T10:34:11;30.10;65.70
55004;DHT22;40900;52.710;6.438;2023-06-14T10:36:41;30.00;65.60
55004;DHT22;40900;52.710;6.438;2023-06-14T10:39:10;29.90;66.10
55004;DHT22;40900;52.710;6.438;2023-06-14T10:41:40;30.10;66.30
55004;DHT22;40900;52.710;6.438;2023-06-14T10:46:59;30.30;66.20
55004;DHT22;40900;52.710;6.438;2023-06-14T10:49:42;30.00;65.70
55004;DHT22;40900;52.710;6.438;2023-06-14T10:52:13;30.10;65.80
55004;DHT22;40900;52.710;6.438;2023-06-14T10:55:01;30.30;67.00
55004;DHT22;40900;52.710;6.438;2023-06-14T10:57:30;30.10;65.80
55004;DHT22;40900;52.710;6.438;2023-06-14T10:59:58;30.00;65.60
55004;DHT22;40900;52.710;6.438;2023-06-14T11:02:44;30.10;66.00
55004;DHT22;40900;52.710;6.438;2023-06-14T11:05:14;30.20;65.70
55004;DHT22;40900;52.710;6.438;2023-06-14T11:10:41;30.30;66.00
55004;DHT22;40900;52.710;6.438;2023-06-14T11:13:07;30.10;65.60
55004;DHT22;40900;52.710;6.438;2023-06-14T11:15:37;29.60;66.10
55004;DHT22;40900;52.710;6.438;2023-06-14T11:18:05;29.20;66.50
55004;DHT22;40900;52.710;6.438;2023-06-14T11:20:33;29.00;66.60
55004;DHT22;40900;52.710;6.438;2023-06-14T11:23:01;28.50;66.60
55004;DHT22;40900;52.710;6.438;2023-06-14T11:25:27;28.40;66.20
55004;DHT22;40900;52.710;6.438;2023-06-14T11:27:56;28.00;67.00
55004;DHT22;40900;52.710;6.438;2023-06-14T11:30:23;28.10;67.50
55004;DHT22;40900;52.710;6.438;2023-06-14T11:32:50;28.00;67.50
55004;DHT22;40900;52.710;6.438;2023-06-14T11:35:18;28.10;67.20
55004;DHT22;40900;52.710;6.438;2023-06-14T11:37:44;28.00;67.60
55004;DHT22;40900;52.710;6.438;2023-06-14T11:40:11;28.10;67.70
55004;DHT22;40900;52.710;6.438;2023-06-14T11:42:40;28.00;67.50
55004;DHT22;40900;52.710;6.438;2023-06-14T11:45:11;27.90;68.20
55004;DHT22;40900;52.710;6.438;2023-06-14T11:47:39;28.00;67.80
55004;DHT22;40900;52.710;6.438;2023-06-14T11:50:07;27.70;68.20
55004;DHT22;40900;52.710;6.438;2023-06-14T11:52:34;27.90;68.30
55004;DHT22;40900;52.710;6.438;2023-06-14T11:55:02;28.00;68.20
55004;DHT22;40900;52.710;6.438;2023-06-14T11:57:33;28.00;68.80
55004;DHT22;40900;52.710;6.438;2023-06-14T12:00:00;28.00;69.10
55004;DHT22;40900;52.710;6.438;2023-06-14T12:02:31;28.10;68.90
55004;DHT22;40900;52.710;6.438;2023-06-14T12:05:04;28.10;69.00
55004;DHT22;40900;52.710;6.438;2023-06-14T12:07:31;28.10;68.90
55004;DHT22;40900;52.710;6.438;2023-06-14T12:12:25;28.00;68.90
55004;DHT22;40900;52.710;6.438;2023-06-14T12:14:52;27.90;69.00
55004;DHT22;40900;52.710;6.438;2023-06-14T12:17:19;27.80;69.40
55004;DHT22;40900;52.710;6.438;2023-06-14T12:19:46;27.80;70.00
55004;DHT22;40900;52.710;6.438;2023-06-14T12:22:15;27.80;70.20
55004;DHT22;40900;52.710;6.438;2023-06-14T12:24:45;27.90;70.10
55004;DHT22;40900;52.710;6.438;2023-06-14T12:27:13;27.80;69.70
55004;DHT22;40900;52.710;6.438;2023-06-14T12:29:41;27.80;70.50
55004;DHT22;40900;52.710;6.438;2023-06-14T12:32:09;28.00;70.40
55004;DHT22;40900;52.710;6.438;2023-06-14T12:34:35;28.00;70.60
55004;DHT22;40900;52.710;6.438;2023-06-14T12:37:01;27.80;70.60
55004;DHT22;40900;52.710;6.438;2023-06-14T12:39:28;27.90;71.00
55004;DHT22;40900;52.710;6.438;2023-06-14T12:41:55;27.80;70.40
55004;DHT22;40900;52.710;6.438;2023-06-14T12:44:21;27.60;70.80
55004;DHT22;40900;52.710;6.438;2023-06-14T12:46:46;27.70;70.70
55004;DHT22;40900;52.710;6.438;2023-06-14T12:49:12;27.70;71.10
55004;DHT22;40900;52.710;6.438;2023-06-14T12:51:39;27.70;71.00
55004;DHT22;40900;52.710;6.438;2023-06-14T12:54:06;27.80;71.20
55004;DHT22;40900;52.710;6.438;2023-06-14T12:56:31;27.70;70.20
55004;DHT22;40900;52.710;6.438;2023-06-14T12:58:58;27.60;70.30
55004;DHT22;40900;52.710;6.438;2023-06-14T13:01:24;27.70;70.70
55004;DHT22;40900;52.710;6.438;2023-06-14T13:03:50;27.80;70.10
55004;DHT22;40900;52.710;6.438;2023-06-14T13:06:17;27.90;70.10
55004;DHT22;40900;52.710;6.438;2023-06-14T13:08:43;27.80;70.40
55004;DHT22;40900;52.710;6.438;2023-06-14T13:11:09;27.90;70.70
55004;DHT22;40900;52.710;6.438;2023-06-14T13:13:35;27.80;70.40
55004;DHT22;40900;52.710;6.438;2023-06-14T13:16:00;27.90;70.30
55004;DHT22;40900;52.710;6.438;2023-06-14T13:18:26;27.90;70.10
55004;DHT22;40900;52.710;6.438;2023-06-14T13:20:52;27.70;70.30
55004;DHT22;40900;52.710;6.438;2023-06-14T13:23:18;27.60;70.90
55004;DHT22;40900;52.710;6.438;2023-06-14T13:25:44;27.70;70.70
55004;DHT22;40900;52.710;6.438;2023-06-14T13:28:10;27.60;70.30
55004;DHT22;40900;52.710;6.438;2023-06-14T13:30:35;27.60;70.50
55004;DHT22;40900;52.710;6.438;2023-06-14T13:33:02;27.50;71.80
55004;DHT22;40900;52.710;6.438;2023-06-14T13:35:29;27.70;70.70
55004;DHT22;40900;52.710;6.438;2023-06-14T13:37:55;27.60;70.70
55004;DHT22;40900;52.710;6.438;2023-06-14T13:40:20;27.50;70.20
55004;DHT22;40900;52.710;6.438;2023-06-14T13:42:46;27.70;70.70
55004;DHT22;40900;52.710;6.438;2023-06-14T13:45:13;27.70;70.90
55004;DHT22;40900;52.710;6.438;2023-06-14T13:47:39;27.70;70.70
55004;DHT22;40900;52.710;6.438;2023-06-14T13:50:05;27.80;70.90
55004;DHT22;40900;52.710;6.438;2023-06-14T13:52:31;27.70;70.70
55004;DHT22;40900;52.710;6.438;2023-06-14T13:54:57;27.70;71.00
55004;DHT22;40900;52.710;6.438;2023-06-14T13:57:23;27.70;70.90
55004;DHT22;40900;52.710;6.438;2023-06-14T13:59:48;27.70;70.60
55004;DHT22;40900;52.710;6.438;2023-06-14T14:02:15;27.80;70.70
55004;DHT22;40900;52.710;6.438;2023-06-14T14:04:41;27.80;70.70
55004;DHT22;40900;52.710;6.438;2023-06-14T14:07:07;27.90;70.90
55004;DHT22;40900;52.710;6.438;2023-06-14T14:09:34;27.70;70.40
55004;DHT22;40900;52.710;6.438;2023-06-14T14:12:03;27.60;70.10
55004;DHT22;40900;52.710;6.438;2023-06-14T14:14:31;27.50;70.70
55004;DHT22;40900;52.710;6.438;2023-06-14T14:16:57;27.60;70.60
55004;DHT22;40900;52.710;6.438;2023-06-14T14:19:24;27.60;71.00
55004;DHT22;40900;52.710;6.438;2023-06-14T14:21:50;27.60;71.80
55004;DHT22;40900;52.710;6.438;2023-06-14T14:24:16;27.50;71.50
55004;DHT22;40900;52.710;6.438;2023-06-14T14:26:42;27.60;71.40
55004;DHT22;40900;52.710;6.438;2023-06-14T14:29:08;27.70;71.20
55004;DHT22;40900;52.710;6.438;2023-06-14T14:31:34;27.80;71.20
55004;DHT22;40900;52.710;6.438;2023-06-14T14:34:00;27.90;70.60
55004;DHT22;40900;52.710;6.438;2023-06-14T14:36:26;27.90;70.70
55004;DHT22;40900;52.710;6.438;2023-06-14T14:38:51;27.70;70.60
55004;DHT22;40900;52.710;6.438;2023-06-14T14:41:17;27.70;70.90
55004;DHT22;40900;52.710;6.438;2023-06-14T14:43:44;27.80;70.60
55004;DHT22;40900;52.710;6.438;2023-06-14T14:46:10;27.70;70.80
55004;DHT22;40900;52.710;6.438;2023-06-14T14:48:35;27.70;70.60
55004;DHT22;40900;52.710;6.438;2023-06-14T14:51:01;27.80;71.30
55004;DHT22;40900;52.710;6.438;2023-06-14T14:53:27;28.00;71.20
55004;DHT22;40900;52.710;6.438;2023-06-14T14:55:53;27.90;71.70
55004;DHT22;40900;52.710;6.438;2023-06-14T14:58:19;27.90;71.50
55004;DHT22;40900;52.710;6.438;2023-06-14T15:00:48;27.90;70.90
55004;DHT22;40900;52.710;6.438;2023-06-14T15:03:14;27.90;71.20
55004;DHT22;40900;52.710;6.438;2023-06-14T15:05:40;27.90;70.00
55004;DHT22;40900;52.710;6.438;2023-06-14T15:08:06;27.60;70.40
55004;DHT22;40900;52.710;6.438;2023-06-14T15:10:38;27.70;70.80
55004;DHT22;40900;52.710;6.438;2023-06-14T15:13:07;27.60;70.60
55004;DHT22;40900;52.710;6.438;2023-06-14T15:15:34;27.60;71.00
55004;DHT22;40900;52.710;6.438;2023-06-14T15:18:00;27.70;71.50
55004;DHT22;40900;52.710;6.438;2023-06-14T15:20:26;27.90;71.30
55004;DHT22;40900;52.710;6.438;2023-06-14T15:22:52;27.90;70.10
55004;DHT22;40900;52.710;6.438;2023-06-14T15:25:18;27.90;70.20
55004;DHT22;40900;52.710;6.438;2023-06-14T15:27:46;27.80;70.20
55004;DHT22;40900;52.710;6.438;2023-06-14T15:30:12;28.00;70.60
55004;DHT22;40900;52.710;6.438;2023-06-14T15:32:38;28.00;70.20
55004;DHT22;40900;52.710;6.438;2023-06-14T15:35:04;27.90;70.10
55004;DHT22;40900;52.710;6.438;2023-06-14T15:37:30;28.00;70.20
55004;DHT22;40900;52.710;6.438;2023-06-14T15:39:55;28.00;70.30
55004;DHT22;40900;52.710;6.438;2023-06-14T15:42:21;28.00;70.60
55004;DHT22;40900;52.710;6.438;2023-06-14T15:44:47;28.00;70.00